sensor_id;sensor_type;location;lat;lon;timestamp;P1;durP1;ratioP1;P2;durP2;ratioP2
50219;SDS011;36110;51.536;7.562;2022-07-22T00:00:19;2.05;;;1.80;;
50219;SDS011;36110;51.536;7.562;2022-07-22T00:02:44;2.00;;;1.90;;
50219;SDS011;36110;51.536;7.562;2022-07-22T00:05:09;1.80;;;1.70;;
50219;SDS011;36110;51.536;7.562;2022-07-22T00:07:36;1.83;;;1.70;;
50219;SDS011;36110;51.536;7.562;2022-07-22T00:10:02;1.85;;;1.70;;
50219;SDS011;36110;51.536;7.562;2022-07-22T00:12:29;2.10;;;2.00;;
50219;SDS011;36110;51.536;7.562;2022-07-22T00:14:54;3.78;;;2.63;;
50219;SDS011;36110;51.536;7.562;2022-07-22T00:17:20;1.80;;;1.70;;
50219;SDS011;36110;51.536;7.562;2022-07-22T00:19:45;8.65;;;4.53;;
50219;SDS011;36110;51.536;7.562;2022-07-22T00:22:11;1.83;;;1.60;;
50219;SDS011;36110;51.536;7.562;2022-07-22T00:24:36;1.90;;;1.80;;
50219;SDS011;36110;51.536;7.562;2022-07-22T00:27:01;2.80;;;2.50;;
50219;SDS011;36110;51.536;7.562;2022-07-22T00:29:27;6.20;;;4.10;;
50219;SDS011;36110;51.536;7.562;2022-07-22T00:31:52;1.83;;;1.73;;
50219;SDS011;36110;51.536;7.562;2022-07-22T00:34:17;2.90;;;2.70;;
50219;SDS011;36110;51.536;7.562;2022-07-22T00:36:42;2.58;;;2.33;;
50219;SDS011;36110;51.536;7.562;2022-07-22T00:39:08;2.20;;;2.10;;
50219;SDS011;36110;51.536;7.562;2022-07-22T00:41:33;1.90;;;1.60;;
50219;SDS011;36110;51.536;7.562;2022-07-22T00:44:06;2.30;;;2.10;;
50219;SDS011;36110;51.536;7.562;2022-07-22T00:46:32;1.60;;;1.50;;
50219;SDS011;36110;51.536;7.562;2022-07-22T00:48:58;1.70;;;1.60;;
50219;SDS011;36110;51.536;7.562;2022-07-22T00:51:25;3.25;;;2.22;;
50219;SDS011;36110;51.536;7.562;2022-07-22T00:53:51;1.75;;;1.65;;
50219;SDS011;36110;51.536;7.562;2022-07-22T00:56:17;1.63;;;1.52;;
50219;SDS011;36110;51.536;7.562;2022-07-22T00:58:44;1.60;;;1.50;;
50219;SDS011;36110;51.536;7.562;2022-07-22T01:01:10;1.55;;;1.35;;
50219;SDS011;36110;51.536;7.562;2022-07-22T01:03:35;4.40;;;1.90;;
50219;SDS011;36110;51.536;7.562;2022-07-22T01:06:01;1.60;;;1.50;;
50219;SDS011;36110;51.536;7.562;2022-07-22T01:08:26;1.70;;;1.60;;
50219;SDS011;36110;51.536;7.562;2022-07-22T01:10:52;1.80;;;1.70;;
50219;SDS011;36110;51.536;7.562;2022-07-22T01:13:17;1.65;;;1.55;;
50219;SDS011;36110;51.536;7.562;2022-07-22T01:15:42;1.67;;;1.58;;
50219;SDS011;36110;51.536;7.562;2022-07-22T01:18:08;1.80;;;1.70;;
50219;SDS011;36110;51.536;7.562;2022-07-22T01:20:34;1.95;;;1.55;;
50219;SDS011;36110;51.536;7.562;2022-07-22T01:23:00;1.70;;;1.60;;
50219;SDS011;36110;51.536;7.562;2022-07-22T01:25:25;1.77;;;1.67;;
50219;SDS011;36110;51.536;7.562;2022-07-22T01:27:51;1.58;;;1.50;;
50219;SDS011;36110;51.536;7.562;2022-07-22T01:30:16;2.10;;;1.42;;
50219;SDS011;36110;51.536;7.562;2022-07-22T01:32:42;1.85;;;1.60;;
50219;SDS011;36110;51.536;7.562;2022-07-22T01:35:07;1.75;;;1.65;;
50219;SDS011;36110;51.536;7.562;2022-07-22T01:37:33;1.85;;;1.73;;
50219;SDS011;36110;51.536;7.562;2022-07-22T01:39:58;1.48;;;1.38;;
50219;SDS011;36110;51.536;7.562;2022-07-22T01:42:24;1.63;;;1.40;;
50219;SDS011;36110;51.536;7.562;2022-07-22T01:44:49;4.95;;;2.20;;
50219;SDS011;36110;51.536;7.562;2022-07-22T01:47:15;1.60;;;1.50;;
50219;SDS011;36110;51.536;7.562;2022-07-22T01:49:40;2.35;;;1.45;;
50219;SDS011;36110;51.536;7.562;2022-07-22T01:52:05;1.45;;;1.40;;
50219;SDS011;36110;51.536;7.562;2022-07-22T01:54:31;1.52;;;1.42;;
50219;SDS011;36110;51.536;7.562;2022-07-22T01:56:56;1.60;;;1.50;;
50219;SDS011;36110;51.536;7.562;2022-07-22T01:59:21;1.60;;;1.50;;
50219;SDS011;36110;51.536;7.562;2022-07-22T02:01:47;2.15;;;1.30;;
50219;SDS011;36110;51.536;7.562;2022-07-22T02:04:12;1.50;;;1.30;;
50219;SDS011;36110;51.536;7.562;2022-07-22T02:06:37;1.20;;;1.20;;
50219;SDS011;36110;51.536;7.562;2022-07-22T02:09:03;1.40;;;1.30;;
50219;SDS011;36110;51.536;7.562;2022-07-22T02:11:30;1.45;;;1.35;;
50219;SDS011;36110;51.536;7.562;2022-07-22T02:13:55;1.40;;;1.30;;
50219;SDS011;36110;51.536;7.562;2022-07-22T02:16:21;1.80;;;1.63;;
50219;SDS011;36110;51.536;7.562;2022-07-22T02:18:46;1.40;;;1.30;;
50219;SDS011;36110;51.536;7.562;2022-07-22T02:21:11;1.67;;;1.30;;
50219;SDS011;36110;51.536;7.562;2022-07-22T02:23:37;1.98;;;1.20;;
50219;SDS011;36110;51.536;7.562;2022-07-22T02:26:02;1.23;;;1.23;;
50219;SDS011;36110;51.536;7.562;2022-07-22T02:28:27;1.60;;;1.50;;
50219;SDS011;36110;51.536;7.562;2022-07-22T02:30:53;7.43;;;1.77;;
50219;SDS011;36110;51.536;7.562;2022-07-22T02:33:18;2.08;;;1.77;;
50219;SDS011;36110;51.536;7.562;2022-07-22T02:35:44;1.30;;;1.30;;
50219;SDS011;36110;51.536;7.562;2022-07-22T02:38:10;1.85;;;1.75;;
50219;SDS011;36110;51.536;7.562;2022-07-22T02:40:35;1.50;;;1.40;;
50219;SDS011;36110;51.536;7.562;2022-07-22T02:43:00;1.40;;;1.30;;
50219;SDS011;36110;51.536;7.562;2022-07-22T02:45:26;2.70;;;1.38;;
50219;SDS011;36110;51.536;7.562;2022-07-22T02:47:52;1.70;;;1.60;;
50219;SDS011;36110;51.536;7.562;2022-07-22T02:50:19;1.40;;;1.30;;
50219;SDS011;36110;51.536;7.562;2022-07-22T02:52:45;3.45;;;1.85;;
50219;SDS011;36110;51.536;7.562;2022-07-22T02:55:10;4.65;;;2.10;;
50219;SDS011;36110;51.536;7.562;2022-07-22T02:57:35;4.82;;;2.38;;
50219;SDS011;36110;51.536;7.562;2022-07-22T03:00:01;1.92;;;1.40;;
50219;SDS011;36110;51.536;7.562;2022-07-22T03:02:28;1.40;;;1.30;;
50219;SDS011;36110;51.536;7.562;2022-07-22T03:04:53;1.23;;;1.20;;
50219;SDS011;36110;51.536;7.562;2022-07-22T03:07:18;1.50;;;1.40;;
50219;SDS011;36110;51.536;7.562;2022-07-22T03:09:43;2.08;;;1.30;;
50219;SDS011;36110;51.536;7.562;2022-07-22T03:12:10;1.55;;;1.45;;
50219;SDS011;36110;51.536;7.562;2022-07-22T03:14:35;1.35;;;1.25;;
50219;SDS011;36110;51.536;7.562;2022-07-22T03:17:01;1.27;;;1.17;;
50219;SDS011;36110;51.536;7.562;2022-07-22T03:19:26;2.05;;;1.55;;
50219;SDS011;36110;51.536;7.562;2022-07-22T03:21:51;2.00;;;1.80;;
50219;SDS011;36110;51.536;7.562;2022-07-22T03:24:17;1.30;;;1.20;;
50219;SDS011;36110;51.536;7.562;2022-07-22T03:26:42;3.33;;;1.85;;
50219;SDS011;36110;51.536;7.562;2022-07-22T03:29:07;3.50;;;2.05;;
50219;SDS011;36110;51.536;7.562;2022-07-22T03:31:33;1.10;;;1.10;;
50219;SDS011;36110;51.536;7.562;2022-07-22T03:33:58;1.33;;;1.23;;
50219;SDS011;36110;51.536;7.562;2022-07-22T03:36:25;1.20;;;1.10;;
50219;SDS011;36110;51.536;7.562;2022-07-22T03:38:51;1.30;;;1.20;;
50219;SDS011;36110;51.536;7.562;2022-07-22T03:41:17;1.00;;;1.00;;
50219;SDS011;36110;51.536;7.562;2022-07-22T03:43:42;0.98;;;0.98;;
50219;SDS011;36110;51.536;7.562;2022-07-22T03:46:07;4.95;;;2.03;;
50219;SDS011;36110;51.536;7.562;2022-07-22T03:48:33;1.20;;;1.20;;
50219;SDS011;36110;51.536;7.562;2022-07-22T03:50:58;1.20;;;1.20;;
50219;SDS011;36110;51.536;7.562;2022-07-22T03:53:23;1.10;;;1.10;;
50219;SDS011;36110;51.536;7.562;2022-07-22T03:55:49;1.15;;;1.15;;
50219;SDS011;36110;51.536;7.562;2022-07-22T03:58:15;1.20;;;1.10;;
50219;SDS011;36110;51.536;7.562;2022-07-22T04:00:42;1.30;;;1.20;;
50219;SDS011;36110;51.536;7.562;2022-07-22T04:03:07;1.30;;;1.20;;
50219;SDS011;36110;51.536;7.562;2022-07-22T04:05:32;1.35;;;1.25;;
50219;SDS011;36110;51.536;7.562;2022-07-22T04:07:59;1.40;;;1.25;;
50219;SDS011;36110;51.536;7.562;2022-07-22T04:10:24;1.27;;;1.20;;
50219;SDS011;36110;51.536;7.562;2022-07-22T04:12:49;1.30;;;1.20;;
50219;SDS011;36110;51.536;7.562;2022-07-22T04:15:15;1.33;;;1.23;;
50219;SDS011;36110;51.536;7.562;2022-07-22T04:17:40;1.05;;;1.05;;
50219;SDS011;36110;51.536;7.562;2022-07-22T04:20:06;4.28;;;2.03;;
50219;SDS011;36110;51.536;7.562;2022-07-22T04:22:32;7.90;;;2.65;;
50219;SDS011;36110;51.536;7.562;2022-07-22T04:24:57;2.58;;;1.55;;
50219;SDS011;36110;51.536;7.562;2022-07-22T04:27:22;2.42;;;1.55;;
50219;SDS011;36110;51.536;7.562;2022-07-22T04:29:48;2.92;;;1.20;;
50219;SDS011;36110;51.536;7.562;2022-07-22T04:32:14;1.77;;;1.45;;
50219;SDS011;36110;51.536;7.562;2022-07-22T04:34:39;2.10;;;1.35;;
50219;SDS011;36110;51.536;7.562;2022-07-22T04:37:05;5.35;;;2.38;;
50219;SDS011;36110;51.536;7.562;2022-07-22T04:39:30;1.00;;;1.00;;
50219;SDS011;36110;51.536;7.562;2022-07-22T04:41:55;2.25;;;1.13;;
50219;SDS011;36110;51.536;7.562;2022-07-22T04:44:21;4.00;;;1.83;;
50219;SDS011;36110;51.536;7.562;2022-07-22T04:46:46;0.70;;;0.70;;
50219;SDS011;36110;51.536;7.562;2022-07-22T04:49:12;4.47;;;1.85;;
50219;SDS011;36110;51.536;7.562;2022-07-22T04:51:37;1.10;;;1.00;;
50219;SDS011;36110;51.536;7.562;2022-07-22T04:54:03;1.25;;;1.20;;
50219;SDS011;36110;51.536;7.562;2022-07-22T04:56:28;1.00;;;1.00;;
50219;SDS011;36110;51.536;7.562;2022-07-22T04:58:53;1.95;;;1.38;;
50219;SDS011;36110;51.536;7.562;2022-07-22T05:01:19;5.15;;;1.85;;
50219;SDS011;36110;51.536;7.562;2022-07-22T05:03:44;1.30;;;1.20;;
50219;SDS011;36110;51.536;7.562;2022-07-22T05:06:09;1.10;;;1.10;;
50219;SDS011;36110;51.536;7.562;2022-07-22T05:08:35;1.10;;;1.10;;
50219;SDS011;36110;51.536;7.562;2022-07-22T05:11:01;1.42;;;1.33;;
50219;SDS011;36110;51.536;7.562;2022-07-22T05:13:26;1.17;;;1.08;;
50219;SDS011;36110;51.536;7.562;2022-07-22T05:15:51;1.40;;;1.25;;
50219;SDS011;36110;51.536;7.562;2022-07-22T05:18:17;1.00;;;1.00;;
50219;SDS011;36110;51.536;7.562;2022-07-22T05:20:43;4.95;;;1.77;;
50219;SDS011;36110;51.536;7.562;2022-07-22T05:23:08;2.53;;;1.40;;
50219;SDS011;36110;51.536;7.562;2022-07-22T05:25:34;10.27;;;3.05;;
50219;SDS011;36110;51.536;7.562;2022-07-22T05:27:59;7.10;;;2.30;;
50219;SDS011;36110;51.536;7.562;2022-07-22T05:30:25;10.93;;;3.65;;
50219;SDS011;36110;51.536;7.562;2022-07-22T05:32:50;8.07;;;2.42;;
50219;SDS011;36110;51.536;7.562;2022-07-22T05:35:16;1.40;;;1.25;;
50219;SDS011;36110;51.536;7.562;2022-07-22T05:37:41;1.00;;;1.00;;
50219;SDS011;36110;51.536;7.562;2022-07-22T05:40:07;4.00;;;1.75;;
50219;SDS011;36110;51.536;7.562;2022-07-22T05:42:33;3.90;;;1.98;;
50219;SDS011;36110;51.536;7.562;2022-07-22T05:44:58;0.93;;;0.93;;
50219;SDS011;36110;51.536;7.562;2022-07-22T05:47:23;2.35;;;1.58;;
50219;SDS011;36110;51.536;7.562;2022-07-22T05:49:49;2.63;;;1.45;;
50219;SDS011;36110;51.536;7.562;2022-07-22T05:52:14;2.78;;;1.70;;
50219;SDS011;36110;51.536;7.562;2022-07-22T05:54:39;1.27;;;1.17;;
50219;SDS011;36110;51.536;7.562;2022-07-22T05:57:05;4.72;;;1.50;;
50219;SDS011;36110;51.536;7.562;2022-07-22T05:59:36;6.45;;;2.63;;
50219;SDS011;36110;51.536;7.562;2022-07-22T06:02:02;4.78;;;1.95;;
50219;SDS011;36110;51.536;7.562;2022-07-22T06:04:27;7.45;;;2.35;;
50219;SDS011;36110;51.536;7.562;2022-07-22T06:06:53;3.03;;;1.77;;
50219;SDS011;36110;51.536;7.562;2022-07-22T06:09:18;1.20;;;1.20;;
50219;SDS011;36110;51.536;7.562;2022-07-22T06:11:44;1.00;;;0.90;;
50219;SDS011;36110;51.536;7.562;2022-07-22T06:14:09;1.60;;;1.33;;
50219;SDS011;36110;51.536;7.562;2022-07-22T06:16:34;1.10;;;1.10;;
50219;SDS011;36110;51.536;7.562;2022-07-22T06:19:00;9.90;;;3.35;;
50219;SDS011;36110;51.536;7.562;2022-07-22T06:21:26;1.45;;;1.33;;
50219;SDS011;36110;51.536;7.562;2022-07-22T06:23:51;1.83;;;1.33;;
50219;SDS011;36110;51.536;7.562;2022-07-22T06:26:17;1.42;;;1.00;;
50219;SDS011;36110;51.536;7.562;2022-07-22T06:28:43;0.98;;;0.90;;
50219;SDS011;36110;51.536;7.562;2022-07-22T06:31:08;1.30;;;1.20;;
50219;SDS011;36110;51.536;7.562;2022-07-22T06:33:33;1.38;;;1.27;;
50219;SDS011;36110;51.536;7.562;2022-07-22T06:35:59;2.28;;;1.05;;
50219;SDS011;36110;51.536;7.562;2022-07-22T06:38:25;9.38;;;3.42;;
50219;SDS011;36110;51.536;7.562;2022-07-22T06:40:50;9.43;;;3.55;;
50219;SDS011;36110;51.536;7.562;2022-07-22T06:43:18;5.57;;;2.33;;
50219;SDS011;36110;51.536;7.562;2022-07-22T06:45:43;1.55;;;1.45;;
50219;SDS011;36110;51.536;7.562;2022-07-22T06:48:09;12.55;;;3.75;;
50219;SDS011;36110;51.536;7.562;2022-07-22T06:50:34;1.55;;;1.20;;
50219;SDS011;36110;51.536;7.562;2022-07-22T06:52:59;6.68;;;2.88;;
50219;SDS011;36110;51.536;7.562;2022-07-22T06:55:25;6.53;;;2.85;;
50219;SDS011;36110;51.536;7.562;2022-07-22T06:57:50;1.58;;;1.13;;
50219;SDS011;36110;51.536;7.562;2022-07-22T07:00:16;1.13;;;1.10;;
50219;SDS011;36110;51.536;7.562;2022-07-22T07:02:42;1.20;;;1.10;;
50219;SDS011;36110;51.536;7.562;2022-07-22T07:05:07;2.38;;;1.70;;
50219;SDS011;36110;51.536;7.562;2022-07-22T07:07:33;9.27;;;4.28;;
50219;SDS011;36110;51.536;7.562;2022-07-22T07:09:58;9.13;;;3.83;;
50219;SDS011;36110;51.536;7.562;2022-07-22T07:12:23;11.60;;;5.18;;
50219;SDS011;36110;51.536;7.562;2022-07-22T07:14:49;17.55;;;5.10;;
50219;SDS011;36110;51.536;7.562;2022-07-22T07:17:14;1.50;;;1.40;;
50219;SDS011;36110;51.536;7.562;2022-07-22T07:19:40;1.50;;;1.40;;
50219;SDS011;36110;51.536;7.562;2022-07-22T07:22:06;1.60;;;1.20;;
50219;SDS011;36110;51.536;7.562;2022-07-22T07:24:31;1.75;;;1.30;;
50219;SDS011;36110;51.536;7.562;2022-07-22T07:26:57;1.10;;;1.00;;
50219;SDS011;36110;51.536;7.562;2022-07-22T07:29:22;1.23;;;1.13;;
50219;SDS011;36110;51.536;7.562;2022-07-22T07:31:48;8.43;;;4.82;;
50219;SDS011;36110;51.536;7.562;2022-07-22T07:34:13;10.88;;;5.63;;
50219;SDS011;36110;51.536;7.562;2022-07-22T07:36:39;1.10;;;1.10;;
50219;SDS011;36110;51.536;7.562;2022-07-22T07:39:04;1.27;;;1.15;;
50219;SDS011;36110;51.536;7.562;2022-07-22T07:41:29;1.42;;;1.17;;
50219;SDS011;36110;51.536;7.562;2022-07-22T07:43:55;6.20;;;3.75;;
50219;SDS011;36110;51.536;7.562;2022-07-22T07:46:20;10.85;;;5.22;;
50219;SDS011;36110;51.536;7.562;2022-07-22T07:48:45;6.78;;;3.97;;
50219;SDS011;36110;51.536;7.562;2022-07-22T07:51:13;1.70;;;1.10;;
50219;SDS011;36110;51.536;7.562;2022-07-22T07:53:38;1.20;;;1.20;;
50219;SDS011;36110;51.536;7.562;2022-07-22T07:56:03;1.73;;;1.63;;
50219;SDS011;36110;51.536;7.562;2022-07-22T07:58:29;3.00;;;1.40;;
50219;SDS011;36110;51.536;7.562;2022-07-22T08:00:54;1.30;;;1.20;;
50219;SDS011;36110;51.536;7.562;2022-07-22T08:03:19;1.15;;;1.05;;
50219;SDS011;36110;51.536;7.562;2022-07-22T08:05:45;1.17;;;1.08;;
50219;SDS011;36110;51.536;7.562;2022-07-22T08:08:10;1.33;;;1.23;;
50219;SDS011;36110;51.536;7.562;2022-07-22T08:10:36;11.02;;;4.93;;
50219;SDS011;36110;51.536;7.562;2022-07-22T08:13:01;3.75;;;2.03;;
50219;SDS011;36110;51.536;7.562;2022-07-22T08:15:27;1.23;;;1.20;;
50219;SDS011;36110;51.536;7.562;2022-07-22T08:17:52;2.10;;;1.50;;
50219;SDS011;36110;51.536;7.562;2022-07-22T08:20:18;1.08;;;1.02;;
50219;SDS011;36110;51.536;7.562;2022-07-22T08:22:44;0.95;;;0.90;;
50219;SDS011;36110;51.536;7.562;2022-07-22T08:25:09;1.15;;;1.02;;
50219;SDS011;36110;51.536;7.562;2022-07-22T08:27:34;0.90;;;0.90;;
50219;SDS011;36110;51.536;7.562;2022-07-22T08:30:00;1.00;;;0.95;;
50219;SDS011;36110;51.536;7.562;2022-07-22T08:32:29;1.13;;;1.02;;
50219;SDS011;36110;51.536;7.562;2022-07-22T08:34:54;2.35;;;1.45;;
50219;SDS011;36110;51.536;7.562;2022-07-22T08:37:20;4.60;;;2.30;;
50219;SDS011;36110;51.536;7.562;2022-07-22T08:39:45;10.60;;;3.15;;
50219;SDS011;36110;51.536;7.562;2022-07-22T08:42:10;10.02;;;4.10;;
50219;SDS011;36110;51.536;7.562;2022-07-22T08:44:36;11.55;;;3.42;;
50219;SDS011;36110;51.536;7.562;2022-07-22T08:47:01;10.82;;;3.60;;
50219;SDS011;36110;51.536;7.562;2022-07-22T08:49:27;10.68;;;3.38;;
50219;SDS011;36110;51.536;7.562;2022-07-22T08:51:53;1.08;;;1.08;;
50219;SDS011;36110;51.536;7.562;2022-07-22T08:54:19;1.70;;;1.13;;
50219;SDS011;36110;51.536;7.562;2022-07-22T08:56:48;7.03;;;2.88;;
50219;SDS011;36110;51.536;7.562;2022-07-22T08:59:15;1.20;;;1.10;;
50219;SDS011;36110;51.536;7.562;2022-07-22T09:02:22;9.25;;;2.95;;
50219;SDS011;36110;51.536;7.562;2022-07-22T09:04:49;8.38;;;2.53;;
50219;SDS011;36110;51.536;7.562;2022-07-22T09:07:22;8.90;;;3.00;;
50219;SDS011;36110;51.536;7.562;2022-07-22T09:09:59;1.02;;;1.02;;
50219;SDS011;36110;51.536;7.562;2022-07-22T09:12:25;4.25;;;1.98;;
50219;SDS011;36110;51.536;7.562;2022-07-22T09:14:54;8.18;;;3.33;;
50219;SDS011;36110;51.536;7.562;2022-07-22T09:19:49;1.20;;;1.10;;
50219;SDS011;36110;51.536;7.562;2022-07-22T09:22:17;4.90;;;2.67;;
50219;SDS011;36110;51.536;7.562;2022-07-22T09:24:55;1.38;;;1.27;;
50219;SDS011;36110;51.536;7.562;2022-07-22T09:27:24;2.22;;;1.48;;
50219;SDS011;36110;51.536;7.562;2022-07-22T09:29:50;1.30;;;1.00;;
50219;SDS011;36110;51.536;7.562;2022-07-22T09:32:16;1.23;;;1.13;;
50219;SDS011;36110;51.536;7.562;2022-07-22T09:34:41;1.10;;;1.00;;
50219;SDS011;36110;51.536;7.562;2022-07-22T09:37:07;1.00;;;1.00;;
50219;SDS011;36110;51.536;7.562;2022-07-22T09:39:32;1.20;;;1.10;;
50219;SDS011;36110;51.536;7.562;2022-07-22T09:42:05;3.80;;;1.38;;
50219;SDS011;36110;51.536;7.562;2022-07-22T09:44:31;1.65;;;1.35;;
50219;SDS011;36110;51.536;7.562;2022-07-22T09:46:57;1.48;;;1.13;;
50219;SDS011;36110;51.536;7.562;2022-07-22T09:52:02;1.65;;;1.20;;
50219;SDS011;36110;51.536;7.562;2022-07-22T09:54:29;4.72;;;2.20;;
50219;SDS011;36110;51.536;7.562;2022-07-22T09:56:55;1.70;;;1.60;;
50219;SDS011;36110;51.536;7.562;2022-07-22T09:59:21;1.08;;;0.98;;
50219;SDS011;36110;51.536;7.562;2022-07-22T10:01:46;1.35;;;1.00;;
50219;SDS011;36110;51.536;7.562;2022-07-22T10:04:12;3.38;;;2.00;;
50219;SDS011;36110;51.536;7.562;2022-07-22T10:06:38;8.20;;;4.32;;
50219;SDS011;36110;51.536;7.562;2022-07-22T10:09:05;1.00;;;1.00;;
50219;SDS011;36110;51.536;7.562;2022-07-22T10:11:32;7.50;;;4.30;;
50219;SDS011;36110;51.536;7.562;2022-07-22T10:13:58;2.83;;;2.03;;
50219;SDS011;36110;51.536;7.562;2022-07-22T10:16:23;2.60;;;1.90;;
50219;SDS011;36110;51.536;7.562;2022-07-22T10:18:49;1.83;;;1.65;;
50219;SDS011;36110;51.536;7.562;2022-07-22T10:21:14;1.27;;;1.08;;
50219;SDS011;36110;51.536;7.562;2022-07-22T10:29:38;1.33;;;1.25;;
50219;SDS011;36110;51.536;7.562;2022-07-22T10:35:25;1.48;;;1.02;;
50219;SDS011;36110;51.536;7.562;2022-07-22T10:40:12;1.10;;;1.10;;
50219;SDS011;36110;51.536;7.562;2022-07-22T10:45:22;1.77;;;1.25;;
50219;SDS011;36110;51.536;7.562;2022-07-22T10:47:52;2.80;;;2.53;;
50219;SDS011;36110;51.536;7.562;2022-07-22T10:53:03;1.55;;;1.45;;
50219;SDS011;36110;51.536;7.562;2022-07-22T10:55:29;1.00;;;1.00;;
50219;SDS011;36110;51.536;7.562;2022-07-22T10:57:56;5.18;;;4.18;;
50219;SDS011;36110;51.536;7.562;2022-07-22T11:00:21;9.38;;;6.28;;
50219;SDS011;36110;51.536;7.562;2022-07-22T11:02:47;10.35;;;8.23;;
50219;SDS011;36110;51.536;7.562;2022-07-22T11:05:13;10.02;;;8.98;;
50219;SDS011;36110;51.536;7.562;2022-07-22T11:07:42;15.98;;;10.55;;
50219;SDS011;36110;51.536;7.562;2022-07-22T11:10:11;1.25;;;1.23;;
50219;SDS011;36110;51.536;7.562;2022-07-22T11:12:38;3.58;;;3.28;;
50219;SDS011;36110;51.536;7.562;2022-07-22T11:15:04;1.98;;;1.60;;
50219;SDS011;36110;51.536;7.562;2022-07-22T11:17:33;1.50;;;1.40;;
50219;SDS011;36110;51.536;7.562;2022-07-22T11:20:06;1.40;;;1.30;;
50219;SDS011;36110;51.536;7.562;2022-07-22T11:22:36;2.17;;;2.00;;
50219;SDS011;36110;51.536;7.562;2022-07-22T11:25:03;1.33;;;1.23;;
50219;SDS011;36110;51.536;7.562;2022-07-22T11:27:30;1.83;;;1.73;;
50219;SDS011;36110;51.536;7.562;2022-07-22T11:29:55;1.73;;;1.63;;
50219;SDS011;36110;51.536;7.562;2022-07-22T11:32:23;8.75;;;7.85;;
50219;SDS011;36110;51.536;7.562;2022-07-22T11:34:49;1.77;;;1.63;;
50219;SDS011;36110;51.536;7.562;2022-07-22T11:37:16;1.60;;;1.50;;
50219;SDS011;36110;51.536;7.562;2022-07-22T11:39:43;4.85;;;4.38;;
50219;SDS011;36110;51.536;7.562;2022-07-22T11:42:09;1.73;;;1.63;;
50219;SDS011;36110;51.536;7.562;2022-07-22T11:44:36;1.65;;;1.52;;
50219;SDS011;36110;51.536;7.562;2022-07-22T11:47:02;2.08;;;1.88;;
50219;SDS011;36110;51.536;7.562;2022-07-22T11:49:30;3.58;;;3.28;;
50219;SDS011;36110;51.536;7.562;2022-07-22T11:51:58;5.32;;;4.63;;
50219;SDS011;36110;51.536;7.562;2022-07-22T11:54:23;13.20;;;10.30;;
50219;SDS011;36110;51.536;7.562;2022-07-22T11:56:49;2.28;;;2.05;;
50219;SDS011;36110;51.536;7.562;2022-07-22T11:59:15;14.35;;;10.20;;
50219;SDS011;36110;51.536;7.562;2022-07-22T12:01:42;13.60;;;10.07;;
50219;SDS011;36110;51.536;7.562;2022-07-22T12:04:09;13.20;;;10.40;;
50219;SDS011;36110;51.536;7.562;2022-07-22T12:06:38;2.35;;;1.52;;
50219;SDS011;36110;51.536;7.562;2022-07-22T12:09:06;9.02;;;6.85;;
50219;SDS011;36110;51.536;7.562;2022-07-22T12:11:35;2.20;;;2.00;;
50219;SDS011;36110;51.536;7.562;2022-07-22T12:14:09;1.40;;;1.30;;
50219;SDS011;36110;51.536;7.562;2022-07-22T12:16:43;1.95;;;1.85;;
50219;SDS011;36110;51.536;7.562;2022-07-22T12:19:13;1.90;;;1.80;;
50219;SDS011;36110;51.536;7.562;2022-07-22T12:24:28;2.42;;;1.90;;
50219;SDS011;36110;51.536;7.562;2022-07-22T12:26:58;2.45;;;2.25;;
50219;SDS011;36110;51.536;7.562;2022-07-22T12:29:26;2.20;;;2.00;;
50219;SDS011;36110;51.536;7.562;2022-07-22T12:31:59;17.25;;;12.45;;
50219;SDS011;36110;51.536;7.562;2022-07-22T12:37:01;13.38;;;8.55;;
50219;SDS011;36110;51.536;7.562;2022-07-22T12:39:39;13.65;;;5.20;;
50219;SDS011;36110;51.536;7.562;2022-07-22T12:42:16;14.05;;;9.20;;
50219;SDS011;36110;51.536;7.562;2022-07-22T12:44:50;12.85;;;7.43;;
50219;SDS011;36110;51.536;7.562;2022-07-22T12:47:39;13.77;;;7.53;;
50219;SDS011;36110;51.536;7.562;2022-07-22T12:52:47;17.65;;;13.00;;
50219;SDS011;36110;51.536;7.562;2022-07-22T12:55:13;21.92;;;13.82;;
50219;SDS011;36110;51.536;7.562;2022-07-22T12:57:39;13.45;;;6.32;;
50219;SDS011;36110;51.536;7.562;2022-07-22T13:00:05;11.45;;;6.65;;
50219;SDS011;36110;51.536;7.562;2022-07-22T13:02:31;20.92;;;13.85;;
50219;SDS011;36110;51.536;7.562;2022-07-22T13:04:56;8.90;;;6.13;;
50219;SDS011;36110;51.536;7.562;2022-07-22T13:07:21;22.33;;;14.32;;
50219;SDS011;36110;51.536;7.562;2022-07-22T13:09:47;19.52;;;12.48;;
50219;SDS011;36110;51.536;7.562;2022-07-22T13:12:12;15.57;;;10.48;;
50219;SDS011;36110;51.536;7.562;2022-07-22T13:14:37;11.60;;;8.55;;
50219;SDS011;36110;51.536;7.562;2022-07-22T13:17:03;18.52;;;14.68;;
50219;SDS011;36110;51.536;7.562;2022-07-22T13:19:28;11.38;;;6.40;;
50219;SDS011;36110;51.536;7.562;2022-07-22T13:21:54;20.92;;;15.20;;
50219;SDS011;36110;51.536;7.562;2022-07-22T13:24:19;9.32;;;6.22;;
50219;SDS011;36110;51.536;7.562;2022-07-22T13:26:45;20.48;;;14.82;;
50219;SDS011;36110;51.536;7.562;2022-07-22T13:29:10;9.20;;;7.03;;
50219;SDS011;36110;51.536;7.562;2022-07-22T13:31:37;22.20;;;17.15;;
50219;SDS011;36110;51.536;7.562;2022-07-22T13:34:02;24.27;;;17.25;;
50219;SDS011;36110;51.536;7.562;2022-07-22T13:36:27;14.13;;;8.55;;
50219;SDS011;36110;51.536;7.562;2022-07-22T13:38:53;17.70;;;12.73;;
50219;SDS011;36110;51.536;7.562;2022-07-22T13:41:19;18.98;;;16.23;;
50219;SDS011;36110;51.536;7.562;2022-07-22T13:43:44;21.88;;;14.98;;
50219;SDS011;36110;51.536;7.562;2022-07-22T13:46:10;17.20;;;13.35;;
50219;SDS011;36110;51.536;7.562;2022-07-22T13:48:35;9.32;;;6.43;;
50219;SDS011;36110;51.536;7.562;2022-07-22T13:51:00;20.45;;;16.52;;
50219;SDS011;36110;51.536;7.562;2022-07-22T13:53:26;12.50;;;9.00;;
50219;SDS011;36110;51.536;7.562;2022-07-22T13:55:51;7.53;;;6.45;;
50219;SDS011;36110;51.536;7.562;2022-07-22T13:58:17;19.95;;;15.55;;
50219;SDS011;36110;51.536;7.562;2022-07-22T14:00:42;13.50;;;10.38;;
50219;SDS011;36110;51.536;7.562;2022-07-22T14:03:07;16.00;;;11.23;;
50219;SDS011;36110;51.536;7.562;2022-07-22T14:05:39;8.00;;;5.18;;
50219;SDS011;36110;51.536;7.562;2022-07-22T14:08:09;7.35;;;6.10;;
50219;SDS011;36110;51.536;7.562;2022-07-22T14:10:35;11.40;;;8.32;;
50219;SDS011;36110;51.536;7.562;2022-07-22T14:13:00;16.25;;;12.93;;
50219;SDS011;36110;51.536;7.562;2022-07-22T14:15:29;8.60;;;5.82;;
50219;SDS011;36110;51.536;7.562;2022-07-22T14:18:37;14.43;;;12.35;;
50219;SDS011;36110;51.536;7.562;2022-07-22T14:21:03;9.05;;;5.20;;
50219;SDS011;36110;51.536;7.562;2022-07-22T14:23:29;7.68;;;6.10;;
50219;SDS011;36110;51.536;7.562;2022-07-22T14:25:55;19.45;;;10.52;;
50219;SDS011;36110;51.536;7.562;2022-07-22T14:28:20;8.13;;;5.50;;
50219;SDS011;36110;51.536;7.562;2022-07-22T14:30:45;16.95;;;13.68;;
50219;SDS011;36110;51.536;7.562;2022-07-22T14:33:10;6.65;;;5.35;;
50219;SDS011;36110;51.536;7.562;2022-07-22T14:35:36;16.40;;;11.48;;
50219;SDS011;36110;51.536;7.562;2022-07-22T14:38:01;10.02;;;5.57;;
50219;SDS011;36110;51.536;7.562;2022-07-22T14:40:26;9.95;;;8.00;;
50219;SDS011;36110;51.536;7.562;2022-07-22T14:42:52;7.60;;;5.15;;
50219;SDS011;36110;51.536;7.562;2022-07-22T14:45:17;6.88;;;5.35;;
50219;SDS011;36110;51.536;7.562;2022-07-22T14:47:42;5.63;;;5.03;;
50219;SDS011;36110;51.536;7.562;2022-07-22T14:50:08;6.50;;;4.88;;
50219;SDS011;36110;51.536;7.562;2022-07-22T14:52:33;5.28;;;4.78;;
50219;SDS011;36110;51.536;7.562;2022-07-22T14:54:58;7.10;;;4.80;;
50219;SDS011;36110;51.536;7.562;2022-07-22T14:57:24;5.60;;;5.00;;
50219;SDS011;36110;51.536;7.562;2022-07-22T14:59:49;6.43;;;5.40;;
50219;SDS011;36110;51.536;7.562;2022-07-22T15:02:14;5.78;;;4.85;;
50219;SDS011;36110;51.536;7.562;2022-07-22T15:04:40;8.80;;;6.30;;
50219;SDS011;36110;51.536;7.562;2022-07-22T15:07:05;12.15;;;7.20;;
50219;SDS011;36110;51.536;7.562;2022-07-22T15:09:30;7.20;;;4.75;;